Weeksbury, Kentucky
Current Conditions -  °F | °C
As of 9:55 PM on Friday 21 Nov 2014 (Local Time) from KPBX Reporting Station
Clear Clear  
Wind Chill: 32°   Ceiling: Unl
Heat Index: 32°   Visibility: 10mi
Dew Point: 12°   Wind: 3mph
Humidity: 44%   Direction: 150°SSE
Pressure: 30.4"   Gusts: NA
Location:  37.33°N, 82.69°W
Report Text: KPBX 220255Z AUTO 15003KT 10SM CLR 00/M11 A3040 RMK AO2 T10021112
Loading
Personal Weather Stations






























Interactive Weather Map New forecast layout! Learn more

10-Day Weather Forecast

Advertisements
Track Severe Weather on mobile